Terminal Aerodrome Forecast
Issued by NWS Buffalo, NY

Home | Current Version | Previous Version | Text Only | Print | Product List | Glossary On
Versions: 1 2 3 4 5 6 7 8 9 10 11 12 13 14 15 16 17 18 19 20 21 22 23 24 25 26 27 28 29 30 31
000
FTUS41 KBUF 011700
TAFROC
TAF
KROC 011730Z 0118/0218 06009KT 3SM -SN BKN020 OVC035
     FM012000 06012KT 6SM -SN SCT020 OVC030
     FM012300 06013KT 2SM -SN OVC025
     FM020600 06013G23KT 1/2SM SN BLSN OVC015
     FM021200 36017G27KT 1/2SM SN BLSN OVC012=

USA.gov is the U.S. government's official web portal to all federal, state and local government web resources and services.